Time;durP1;ratioP1;P1;durP2;ratioP2;P2;SDS_P1;SDS_P2;PMS_P1;PMS_P2;Temp;Humidity;BMP_temperature;BMP_pressure;BME280_temperature;BME280_humidity;BME280_pressure;Samples;Min_cycle;Max_cycle;Signal;HPM_P1;HPM_P2
2022/04/25 00:01:37;;;;;;;9.70;8.43;;;11.40;99.90;;;;;;5094277;28;20209;-48
2022/04/25 00:04:03;;;;;;;9.43;8.52;;;11.40;99.90;;;;;;5094536;28;20219;-47
2022/04/25 00:06:29;;;;;;;11.18;8.75;;;11.40;99.90;;;;;;5094417;28;20176;-49
2022/04/25 00:08:55;;;;;;;8.57;7.68;;;11.40;99.90;;;;;;5094631;28;20169;-48
2022/04/25 00:11:20;;;;;;;9.77;8.77;;;11.50;99.90;;;;;;5094665;28;20198;-46
2022/04/25 00:13:46;;;;;;;8.30;7.22;;;11.50;99.90;;;;;;5094204;28;20209;-48
2022/04/25 00:16:11;;;;;;;7.35;6.63;;;11.40;99.90;;;;;;5094125;28;20172;-47
2022/04/25 00:18:37;;;;;;;11.25;7.63;;;11.40;99.90;;;;;;5093676;28;20214;-46
2022/04/25 00:21:03;;;;;;;9.73;8.75;;;11.50;99.90;;;;;;5094058;28;20252;-47
2022/04/25 00:23:29;;;;;;;9.95;8.98;;;11.40;99.90;;;;;;5094040;28;20180;-47
2022/04/25 00:25:55;;;;;;;10.38;8.38;;;11.50;99.90;;;;;;5094302;28;20161;-47
2022/04/25 00:28:20;;;;;;;11.05;8.27;;;11.40;99.90;;;;;;5093935;28;20173;-47
2022/04/25 00:30:49;;;;;;;8.60;7.55;;;11.50;99.90;;;;;;5093870;28;20169;-45
2022/04/25 00:33:15;;;;;;;9.30;8.40;;;11.40;99.90;;;;;;5093720;28;20277;-48
2022/04/25 00:35:41;;;;;;;9.77;8.77;;;11.40;99.90;;;;;;5093819;28;20244;-47
2022/04/25 00:38:09;;;;;;;11.02;8.10;;;11.20;99.90;;;;;;5093736;28;20176;-47
2022/04/25 00:40:34;;;;;;;9.35;6.68;;;11.20;99.90;;;;;;5093966;28;20223;-47
2022/04/25 00:43:00;;;;;;;8.95;6.72;;;11.00;99.90;;;;;;5093703;28;20173;-48
2022/04/25 00:45:25;;;;;;;6.47;5.45;;;10.90;99.90;;;;;;5094097;28;20525;-46
2022/04/25 00:47:51;;;;;;;6.07;4.82;;;10.70;99.90;;;;;;5093970;28;20175;-48
2022/04/25 00:50:17;;;;;;;4.93;4.30;;;10.70;99.90;;;;;;5093563;28;20169;-48
2022/04/25 00:52:43;;;;;;;6.47;4.38;;;10.60;99.90;;;;;;5093379;28;20173;-46
2022/04/25 00:55:10;;;;;;;4.72;3.72;;;10.50;99.90;;;;;;5093700;28;20177;-48
2022/04/25 00:57:37;;;;;;;4.20;3.80;;;10.40;99.90;;;;;;5093355;28;20222;-49
2022/04/25 01:00:10;;;;;;;5.95;3.67;;;10.40;99.90;;;;;;5093264;28;20177;-48
2022/04/25 01:02:36;;;;;;;4.45;4.03;;;10.30;99.90;;;;;;5093180;28;20367;-48
2022/04/25 01:05:04;;;;;;;4.38;3.97;;;10.40;99.90;;;;;;5093226;28;20667;-50
2022/04/25 01:07:30;;;;;;;4.97;3.72;;;10.50;99.90;;;;;;5093234;28;20157;-49
2022/04/25 01:09:56;;;;;;;4.60;4.10;;;10.50;99.90;;;;;;5093026;28;20637;-45
2022/04/25 01:12:22;;;;;;;5.28;3.58;;;10.60;99.90;;;;;;5093358;28;20180;-43
2022/04/25 01:14:59;;;;;;;5.38;3.78;;;10.60;99.90;;;;;;5093255;28;20209;-43
2022/04/25 01:17:24;;;;;;;3.92;3.50;;;10.60;99.90;;;;;;5093262;28;20170;-44
2022/04/25 01:19:50;;;;;;;4.45;4.03;;;10.60;99.90;;;;;;5093235;28;20252;-43
2022/04/25 01:22:19;;;;;;;4.78;3.15;;;10.70;99.90;;;;;;5093092;28;20172;-43
2022/04/25 01:27:28;;;;;;;3.50;3.20;;;10.70;99.90;;;;;;5093056;28;20176;-42
2022/04/25 01:29:54;;;;;;;3.58;3.28;;;10.60;99.90;;;;;;5092611;28;20170;-43
2022/04/25 01:32:22;;;;;;;3.47;3.17;;;10.70;99.90;;;;;;5092537;28;20170;-43
2022/04/25 01:34:49;;;;;;;4.43;3.55;;;10.60;99.90;;;;;;5092527;28;20241;-44
2022/04/25 01:37:17;;;;;;;4.10;3.70;;;10.50;99.90;;;;;;5092673;28;20215;-43
2022/04/25 01:39:48;;;;;;;4.20;3.80;;;10.50;99.90;;;;;;5092567;28;20688;-43
2022/04/25 01:42:15;;;;;;;5.30;3.85;;;10.50;99.90;;;;;;5092510;28;20177;-43
2022/04/25 01:44:41;;;;;;;5.53;4.22;;;10.60;99.90;;;;;;5092582;28;20171;-42
2022/04/25 01:47:08;;;;;;;5.25;4.55;;;10.60;99.90;;;;;;5092504;28;20204;-43
2022/04/25 01:49:34;;;;;;;5.93;4.20;;;10.60;99.90;;;;;;5092412;28;20181;-43
2022/04/25 01:52:03;;;;;;;5.38;4.50;;;10.70;99.90;;;;;;5092370;28;20534;-43
2022/04/25 01:54:32;;;;;;;4.18;3.70;;;10.60;99.90;;;;;;5092354;28;20243;-48
2022/04/25 01:56:58;;;;;;;3.97;3.58;;;10.60;99.90;;;;;;5092633;28;20165;-48
2022/04/25 01:59:24;;;;;;;4.82;3.40;;;10.40;99.90;;;;;;5092822;28;20184;-49
2022/04/25 02:01:51;;;;;;;5.93;3.58;;;10.30;99.90;;;;;;5092447;28;20217;-43
2022/04/25 02:04:16;;;;;;;5.25;3.95;;;10.30;99.90;;;;;;5092503;28;20541;-41
2022/04/25 02:06:42;;;;;;;4.28;3.50;;;10.30;99.90;;;;;;5092506;28;20165;-41
2022/04/25 02:09:08;;;;;;;4.80;3.90;;;10.30;99.90;;;;;;5092151;28;20244;-42
2022/04/25 02:11:34;;;;;;;4.22;3.75;;;10.30;99.90;;;;;;5092400;28;20219;-47
2022/04/25 02:14:00;;;;;;;6.03;3.67;;;10.30;99.90;;;;;;5092043;28;20359;-47
2022/04/25 02:16:26;;;;;;;4.85;4.20;;;10.40;99.90;;;;;;5092382;28;20168;-43
2022/04/25 02:18:53;;;;;;;4.88;4.03;;;10.50;99.90;;;;;;5092671;28;20173;-46
2022/04/25 02:21:19;;;;;;;4.20;3.80;;;10.50;99.90;;;;;;5092051;28;20222;-48
2022/04/25 02:23:44;;;;;;;3.50;3.20;;;10.40;99.90;;;;;;5092166;28;20165;-45
2022/04/25 02:26:10;;;;;;;5.20;4.28;;;10.40;99.90;;;;;;5092138;28;20173;-47
2022/04/25 02:28:37;;;;;;;4.95;4.45;;;10.40;99.90;;;;;;5092011;28;20165;-50
2022/04/25 02:31:04;;;;;;;5.03;4.45;;;10.30;99.90;;;;;;5092348;28;20528;-43
2022/04/25 02:33:31;;;;;;;6.65;4.40;;;10.30;99.90;;;;;;5091769;28;20257;-47
2022/04/25 02:35:56;;;;;;;5.93;4.10;;;10.40;99.90;;;;;;5092202;28;20181;-45
2022/04/25 02:38:22;;;;;;;5.45;4.65;;;10.40;99.90;;;;;;5092443;28;20649;-44
2022/04/25 02:41:04;;;;;;;6.45;5.47;;;10.50;99.90;;;;;;5092117;28;20653;-44
2022/04/25 02:43:34;;;;;;;5.85;4.38;;;10.40;99.90;;;;;;5096019;28;20169;-46
2022/04/25 02:46:02;;;;;;;7.63;5.50;;;10.40;99.90;;;;;;5096058;28;20165;-47
2022/04/25 02:48:28;;;;;;;6.32;4.68;;;10.40;99.90;;;;;;5096058;28;20226;-47
2022/04/25 02:50:54;;;;;;;6.10;5.32;;;10.40;99.90;;;;;;5096138;28;20165;-45
2022/04/25 02:53:19;;;;;;;5.22;4.70;;;10.40;99.90;;;;;;5094779;28;20284;-46
2022/04/25 02:55:45;;;;;;;5.43;4.93;;;10.50;99.90;;;;;;5095757;28;20253;-48
2022/04/25 02:58:10;;;;;;;5.80;5.03;;;10.50;99.90;;;;;;5095638;28;20631;-46
2022/04/25 03:00:36;;;;;;;6.53;5.30;;;10.50;99.90;;;;;;5095689;28;20169;-46
2022/04/25 03:03:01;;;;;;;6.43;4.72;;;10.40;99.90;;;;;;5095457;28;20225;-46
2022/04/25 03:05:27;;;;;;;5.43;4.65;;;10.20;99.90;;;;;;5095487;28;20653;-45
2022/04/25 03:07:53;;;;;;;6.75;5.68;;;9.80;99.90;;;;;;5095929;28;20165;-46
2022/04/25 03:10:19;;;;;;;7.53;5.82;;;9.70;99.90;;;;;;5095401;28;20166;-46
2022/04/25 03:12:44;;;;;;;8.63;5.90;;;9.70;99.90;;;;;;5095249;28;20181;-46
2022/04/25 03:15:10;;;;;;;7.28;6.20;;;9.70;99.90;;;;;;5095387;28;20583;-46
2022/04/25 03:17:36;;;;;;;8.13;6.20;;;9.90;99.90;;;;;;5095301;28;20166;-46
2022/04/25 03:20:02;;;;;;;6.55;5.85;;;9.90;99.90;;;;;;5093941;28;20196;-46
2022/04/25 03:22:27;;;;;;;8.25;6.43;;;10.00;99.90;;;;;;5094099;28;20248;-46
2022/04/25 03:24:53;;;;;;;7.72;5.97;;;10.00;99.90;;;;;;5095437;28;20193;-46
2022/04/25 03:27:18;;;;;;;7.10;6.25;;;9.90;99.90;;;;;;5095222;28;20691;-46
2022/04/25 03:29:44;;;;;;;7.65;6.85;;;10.00;99.90;;;;;;5094984;28;20176;-46
2022/04/25 03:32:09;;;;;;;12.95;8.38;;;10.10;99.90;;;;;;5095322;28;20176;-47
2022/04/25 03:34:37;;;;;;;12.65;9.25;;;10.10;99.90;;;;;;5094891;28;20201;-45
2022/04/25 03:37:03;;;;;;;12.95;8.63;;;10.10;99.90;;;;;;5095141;28;20173;-44
2022/04/25 03:39:29;;;;;;;12.43;9.32;;;10.10;99.90;;;;;;5094933;28;20161;-44
2022/04/25 03:41:55;;;;;;;8.13;7.15;;;10.10;99.90;;;;;;5095143;28;20336;-47
2022/04/25 03:44:20;;;;;;;13.02;7.63;;;10.10;99.90;;;;;;5095123;28;20633;-44
2022/04/25 03:46:46;;;;;;;8.50;7.15;;;10.10;99.90;;;;;;5094785;28;20162;-46
2022/04/25 03:49:13;;;;;;;9.23;6.78;;;10.10;99.90;;;;;;5094677;28;20173;-46
2022/04/25 03:51:39;;;;;;;8.23;6.80;;;10.00;99.90;;;;;;5094714;28;20556;-48
2022/04/25 03:54:05;;;;;;;7.95;7.00;;;9.90;99.90;;;;;;5093498;28;20253;-49
2022/04/25 03:59:14;;;;;;;10.82;7.38;;;10.00;99.90;;;;;;5094772;28;20226;-47
2022/04/25 04:01:40;;;;;;;8.27;7.07;;;10.10;99.90;;;;;;5094349;28;20292;-43
2022/04/25 04:04:05;;;;;;;8.95;7.70;;;10.10;99.90;;;;;;5094707;28;20622;-45
2022/04/25 04:06:32;;;;;;;9.70;7.72;;;10.00;99.90;;;;;;5094283;28;20173;-46
2022/04/25 04:08:58;;;;;;;9.80;8.00;;;10.00;99.90;;;;;;5094352;28;20168;-43
2022/04/25 04:11:45;;;;;;;10.60;8.20;;;9.90;99.90;;;;;;5094696;28;20174;-43
2022/04/25 04:14:09;;;;;;;14.57;9.55;;;9.90;99.90;;;;;;5093943;28;20296;-47
2022/04/25 04:16:35;;;;;;;14.32;8.55;;;9.90;99.90;;;;;;5093974;28;20240;-43
2022/04/25 04:19:00;;;;;;;10.43;8.43;;;9.90;99.90;;;;;;5092583;28;20180;-46
2022/04/25 04:21:26;;;;;;;11.63;8.70;;;9.80;99.90;;;;;;5094326;28;20244;-43
2022/04/25 04:23:51;;;;;;;15.35;9.73;;;9.80;99.90;;;;;;5094352;28;20172;-45
2022/04/25 04:26:17;;;;;;;10.00;8.98;;;9.90;99.90;;;;;;5094002;28;20574;-43
2022/04/25 04:28:42;;;;;;;11.93;8.85;;;9.80;99.90;;;;;;5093846;28;20184;-45
2022/04/25 04:31:08;;;;;;;10.68;8.10;;;9.80;99.90;;;;;;5094041;28;20191;-46
2022/04/25 04:33:33;;;;;;;9.27;7.65;;;9.70;99.90;;;;;;5093491;28;20211;-44
2022/04/25 04:36:17;;;;;;;8.88;7.97;;;9.70;99.90;;;;;;5093839;28;20244;-43
2022/04/25 04:38:43;;;;;;;9.90;7.90;;;9.70;99.90;;;;;;5093816;28;20532;-46
2022/04/25 04:41:09;;;;;;;9.10;8.15;;;9.70;99.90;;;;;;5093584;28;20180;-46
2022/04/25 04:43:35;;;;;;;9.50;7.60;;;9.70;99.90;;;;;;5093366;28;20540;-43
2022/04/25 04:46:00;;;;;;;9.65;8.32;;;9.80;99.90;;;;;;5093656;28;20252;-46
2022/04/25 04:48:26;;;;;;;10.15;9.05;;;9.70;99.90;;;;;;5093400;28;20637;-43
2022/04/25 04:50:55;;;;;;;10.45;9.23;;;9.80;99.90;;;;;;5094203;28;20177;-44
2022/04/25 04:53:21;;;;;;;12.65;8.93;;;9.90;99.90;;;;;;5093891;28;20212;-44
2022/04/25 04:55:47;;;;;;;11.45;8.70;;;10.00;99.90;;;;;;5093676;28;20222;-44
2022/04/25 04:58:13;;;;;;;11.23;8.05;;;10.00;99.90;;;;;;5093641;28;20634;-47
2022/04/25 05:00:39;;;;;;;9.55;8.55;;;10.00;99.90;;;;;;5093474;28;20177;-46
2022/04/25 05:03:05;;;;;;;8.90;8.00;;;10.10;99.90;;;;;;5092959;28;20709;-45
2022/04/25 05:05:31;;;;;;;9.27;8.38;;;10.10;99.90;;;;;;5093225;28;20173;-47
2022/04/25 05:07:56;;;;;;;10.88;7.72;;;10.10;99.90;;;;;;5093344;28;20176;-45
2022/04/25 05:10:22;;;;;;;9.73;7.55;;;10.00;99.90;;;;;;5092970;28;20166;-44
2022/04/25 05:12:54;;;;;;;14.77;11.73;;;9.90;99.90;;;;;;5092943;28;20168;-44
2022/04/25 05:15:20;;;;;;;10.48;9.18;;;9.80;99.90;;;;;;5093304;28;20169;-42
2022/04/25 05:17:50;;;;;;;11.93;8.15;;;10.00;99.90;;;;;;5093125;28;20161;-44
2022/04/25 05:20:17;;;;;;;9.98;7.90;;;10.00;99.90;;;;;;5091874;28;20176;-41
2022/04/25 05:22:45;;;;;;;11.10;8.25;;;10.20;99.90;;;;;;5092936;28;20157;-42
2022/04/25 05:25:16;;;;;;;9.57;8.10;;;10.30;99.90;;;;;;5092812;28;20165;-42
2022/04/25 05:27:49;;;;;;;11.73;9.07;;;10.30;99.90;;;;;;5092837;28;20161;-43
2022/04/25 05:30:16;;;;;;;8.82;7.70;;;10.30;99.90;;;;;;5092687;28;20539;-42
2022/04/25 05:32:48;;;;;;;11.10;8.30;;;10.40;99.90;;;;;;5092796;28;20256;-42
2022/04/25 05:35:15;;;;;;;9.95;8.40;;;10.50;99.90;;;;;;5092656;28;20268;-42
2022/04/25 05:37:41;;;;;;;8.88;7.85;;;10.60;99.90;;;;;;5092637;28;20169;-42
2022/04/25 05:40:07;;;;;;;8.68;7.78;;;10.60;99.90;;;;;;5092868;28;20183;-42
2022/04/25 05:42:34;;;;;;;10.10;8.95;;;10.50;99.90;;;;;;5092455;28;20528;-42
2022/04/25 05:45:00;;;;;;;9.95;8.45;;;10.50;99.90;;;;;;5092526;28;20158;-42
2022/04/25 05:47:26;;;;;;;10.98;8.32;;;10.70;99.90;;;;;;5092376;28;20178;-43
2022/04/25 05:52:36;;;;;;;9.40;8.20;;;10.90;99.90;;;;;;5092216;28;20176;-47
2022/04/25 05:55:02;;;;;;;9.68;8.55;;;11.00;99.90;;;;;;5092214;28;20212;-44
2022/04/25 05:57:28;;;;;;;10.55;9.23;;;11.10;99.90;;;;;;5092141;28;20630;-48
2022/04/25 05:59:54;;;;;;;13.85;8.65;;;11.20;99.90;;;;;;5092431;28;20227;-46
2022/04/25 06:02:19;;;;;;;9.73;8.73;;;11.20;99.90;;;;;;5092037;28;20223;-48
2022/04/25 06:04:45;;;;;;;11.02;8.52;;;11.20;99.90;;;;;;5092226;28;20166;-47
2022/04/25 06:07:10;;;;;;;12.52;9.27;;;11.10;99.90;;;;;;5092385;28;20169;-46
2022/04/25 06:09:36;;;;;;;10.52;9.43;;;11.30;99.90;;;;;;5092174;28;20656;-47
2022/04/25 06:12:04;;;;;;;11.93;9.85;;;11.30;99.90;;;;;;5092276;28;20184;-47
2022/04/25 06:14:33;;;;;;;10.57;9.35;;;11.40;99.90;;;;;;5092057;28;20209;-46
2022/04/25 06:17:01;;;;;;;11.73;10.52;;;11.40;99.90;;;;;;5091641;28;20193;-49
2022/04/25 06:19:27;;;;;;;10.55;9.32;;;11.70;99.90;;;;;;5092122;28;20201;-44
2022/04/25 06:21:52;;;;;;;11.25;9.57;;;11.70;99.90;;;;;;5092324;28;20584;-46
2022/04/25 06:24:19;;;;;;;10.50;9.45;;;11.80;99.90;;;;;;5092067;28;20169;-46
2022/04/25 06:26:47;;;;;;;10.35;9.35;;;12.00;99.90;;;;;;5092061;28;20165;-46
2022/04/25 06:29:12;;;;;;;10.68;9.68;;;12.20;99.90;;;;;;5092217;28;20181;-47
2022/04/25 06:31:38;;;;;;;10.98;9.48;;;12.30;99.90;;;;;;5091936;28;20290;-46
2022/04/25 06:34:04;;;;;;;11.18;9.98;;;12.40;99.90;;;;;;5091911;28;20288;-46
2022/04/25 06:36:30;;;;;;;10.27;9.18;;;12.40;99.90;;;;;;5091970;28;20166;-46
2022/04/25 06:38:55;;;;;;;11.70;9.32;;;12.30;99.90;;;;;;5092080;28;20191;-47
2022/04/25 06:41:21;;;;;;;10.50;9.35;;;12.30;99.90;;;;;;5092267;28;20268;-46
2022/04/25 06:43:47;;;;;;;10.98;9.88;;;12.20;99.90;;;;;;5091805;28;20189;-47
2022/04/25 06:46:12;;;;;;;11.55;10.38;;;12.10;99.90;;;;;;5091793;28;20248;-46
2022/04/25 06:48:38;;;;;;;11.90;9.73;;;12.10;99.90;;;;;;5091884;28;20241;-43
2022/04/25 06:51:03;;;;;;;11.15;9.98;;;12.00;99.90;;;;;;5091752;28;20172;-43
2022/04/25 06:53:29;;;;;;;11.20;8.70;;;12.20;99.90;;;;;;5091922;28;20205;-43
2022/04/25 06:55:54;;;;;;;9.18;8.35;;;12.20;99.90;;;;;;5092276;28;20174;-43
2022/04/25 06:58:20;;;;;;;10.63;9.07;;;12.40;99.90;;;;;;5091732;28;20161;-43
2022/04/25 07:00:47;;;;;;;9.77;8.13;;;12.20;99.90;;;;;;5091961;28;20179;-43
2022/04/25 07:03:12;;;;;;;9.75;8.75;;;12.20;99.90;;;;;;5091464;28;20229;-44
2022/04/25 07:05:38;;;;;;;12.13;8.20;;;12.10;99.90;;;;;;5091664;28;20158;-44
2022/04/25 07:08:04;;;;;;;10.55;8.15;;;12.10;99.90;;;;;;5091823;28;20173;-45
2022/04/25 07:10:30;;;;;;;10.10;9.10;;;12.00;99.90;;;;;;5091589;28;20246;-43
2022/04/25 07:12:56;;;;;;;8.85;8.05;;;12.00;99.90;;;;;;5091932;28;20165;-45
2022/04/25 07:15:22;;;;;;;9.00;8.10;;;12.30;99.90;;;;;;5091874;28;20169;-43
2022/04/25 07:17:50;;;;;;;15.27;8.77;;;12.40;99.90;;;;;;5091427;28;20181;-46
2022/04/25 07:20:16;;;;;;;8.85;8.02;;;12.50;99.90;;;;;;5091738;28;20173;-44
2022/04/25 07:30:54;;;;;;;7.97;7.25;;;12.40;99.90;;;;;;5095326;28;20172;-43
2022/04/25 07:33:20;;;;;;;9.25;7.72;;;12.50;99.90;;;;;;5095012;28;20201;-45
2022/04/25 07:35:45;;;;;;;8.30;7.50;;;12.60;99.90;;;;;;5095203;28;20185;-43
2022/04/25 07:38:12;;;;;;;9.63;8.73;;;12.60;99.90;;;;;;5095182;28;20579;-43
2022/04/25 07:40:41;;;;;;;8.88;7.82;;;12.70;99.90;;;;;;5095220;28;20532;-42
2022/04/25 07:43:06;;;;;;;8.07;7.38;;;12.80;99.90;;;;;;5094817;28;20642;-43
2022/04/25 07:45:32;;;;;;;7.85;7.15;;;13.10;99.90;;;;;;5095012;28;20220;-43
2022/04/25 07:47:58;;;;;;;7.60;6.90;;;13.20;99.90;;;;;;5094883;28;20193;-43
2022/04/25 07:50:25;;;;;;;8.60;7.78;;;13.40;99.90;;;;;;5094970;28;20211;-43
2022/04/25 07:52:51;;;;;;;8.02;7.25;;;13.50;99.90;;;;;;5095073;28;20170;-42
2022/04/25 07:55:17;;;;;;;15.38;8.80;;;13.50;99.90;;;;;;5094553;28;20291;-43
2022/04/25 07:57:42;;;;;;;8.80;7.53;;;13.40;99.90;;;;;;5094474;28;20199;-45
2022/04/25 08:00:08;;;;;;;9.45;8.02;;;13.40;99.90;;;;;;5094732;28;20214;-43
2022/04/25 08:02:34;;;;;;;7.72;7.13;;;13.30;99.90;;;;;;5094283;28;20219;-44
2022/04/25 08:05:00;;;;;;;9.88;7.68;;;13.40;99.90;;;;;;5094666;28;20244;-47
2022/04/25 08:07:25;;;;;;;8.13;7.32;;;13.50;99.90;;;;;;5094485;28;20645;-43
2022/04/25 08:09:52;;;;;;;8.20;7.50;;;13.50;99.90;;;;;;5094626;28;20177;-45
2022/04/25 08:18:01;;;;;;;8.63;7.82;;;13.60;99.90;;;;;;5094461;28;20188;-44
2022/04/25 08:20:34;;;;;;;9.50;8.50;;;13.60;99.90;;;;;;5094087;28;20660;-44
2022/04/25 08:23:00;;;;;;;9.20;8.30;;;13.90;99.90;;;;;;5094253;28;20165;-45
2022/04/25 08:25:26;;;;;;;11.38;8.40;;;14.10;99.90;;;;;;5093974;28;20188;-43
2022/04/25 08:27:51;;;;;;;9.07;8.05;;;14.00;99.90;;;;;;5094540;28;20515;-46
2022/04/25 08:30:17;;;;;;;8.95;8.05;;;13.90;99.90;;;;;;5093872;28;20315;-46
2022/04/25 08:32:45;;;;;;;9.10;8.30;;;13.90;99.90;;;;;;5094115;28;20173;-43
2022/04/25 08:35:12;;;;;;;8.65;7.85;;;14.10;99.90;;;;;;5093973;28;20216;-44
2022/04/25 08:37:38;;;;;;;8.77;7.95;;;13.90;99.90;;;;;;5093972;28;20256;-45
2022/04/25 08:40:05;;;;;;;8.88;8.00;;;13.80;99.90;;;;;;5093467;28;20252;-45
2022/04/25 08:42:31;;;;;;;10.40;8.80;;;13.80;99.90;;;;;;5093676;28;20165;-46
2022/04/25 08:44:58;;;;;;;9.80;8.90;;;13.80;99.90;;;;;;5091424;28;20177;-46
2022/04/25 08:47:29;;;;;;;11.10;9.55;;;13.90;99.90;;;;;;5084224;28;20211;-46
2022/04/25 08:49:57;;;;;;;9.77;8.88;;;14.10;99.90;;;;;;5093629;28;20547;-42
2022/04/25 08:52:23;;;;;;;10.18;9.27;;;14.10;99.90;;;;;;5088999;28;20605;-41
2022/04/25 08:54:49;;;;;;;10.95;9.82;;;14.20;99.90;;;;;;5086187;28;20297;-42
2022/04/25 08:57:17;;;;;;;11.30;10.20;;;14.30;99.90;;;;;;5092977;28;20168;-43
2022/04/25 08:59:44;;;;;;;11.65;10.55;;;14.60;99.90;;;;;;5084920;28;20685;-43
2022/04/25 09:02:12;;;;;;;11.90;10.38;;;14.50;99.90;;;;;;5072893;28;20253;-42
2022/04/25 09:04:37;;;;;;;17.67;10.60;;;14.20;99.90;;;;;;5073082;28;20227;-43
2022/04/25 09:07:03;;;;;;;11.70;10.60;;;14.20;99.90;;;;;;5072978;28;20166;-43
2022/04/25 09:09:28;;;;;;;10.15;9.25;;;14.20;99.90;;;;;;5072859;28;20182;-42
2022/04/25 09:12:10;;;;;;;9.85;8.88;;;14.30;99.90;;;;;;5073348;28;20577;-43
2022/04/25 09:14:40;;;;;;;10.00;7.32;;;14.80;99.90;;;;;;5090580;28;20208;-43
2022/04/25 09:17:06;;;;;;;7.63;6.82;;;14.60;99.90;;;;;;5073053;28;20170;-43
2022/04/25 09:19:33;;;;;;;7.75;7.05;;;14.60;99.90;;;;;;5072756;28;20699;-45
2022/04/25 09:21:59;;;;;;;9.05;8.15;;;14.60;99.90;;;;;;5072522;28;20527;-43
2022/04/25 09:24:25;;;;;;;7.63;7.03;;;14.60;99.90;;;;;;5073205;28;20170;-43
2022/04/25 09:27:06;;;;;;;7.18;6.57;;;14.80;99.90;;;;;;5072627;28;20173;-44
2022/04/25 09:29:32;;;;;;;5.82;5.32;;;15.40;99.90;;;;;;5072509;28;20174;-42
2022/04/25 09:31:58;;;;;;;9.18;5.10;;;15.70;99.90;;;;;;5091366;28;20583;-40
2022/04/25 09:37:08;;;;;;;6.90;5.90;;;15.80;99.90;;;;;;5092930;28;20217;-43
2022/04/25 09:39:34;;;;;;;6.85;6.13;;;16.00;99.90;;;;;;5084937;28;20202;-42
2022/04/25 09:42:00;;;;;;;6.75;6.00;;;15.70;99.90;;;;;;5079984;28;20627;-42
2022/04/25 09:44:28;;;;;;;6.65;5.40;;;16.00;99.90;;;;;;5093193;28;20173;-45
2022/04/25 09:46:54;;;;;;;6.25;5.65;;;16.20;99.90;;;;;;5090327;28;20169;-46
2022/04/25 09:49:20;;;;;;;5.53;5.00;;;16.40;99.90;;;;;;5092264;28;20188;-43
2022/04/25 09:52:02;;;;;;;7.28;5.40;;;16.00;99.90;;;;;;5087499;28;20170;-45
2022/04/25 09:54:28;;;;;;;6.00;5.32;;;15.90;99.90;;;;;;5071722;28;20206;-43
2022/04/25 09:56:54;;;;;;;6.00;5.45;;;16.10;99.90;;;;;;5072361;28;20220;-45
2022/04/25 09:59:21;;;;;;;5.40;4.95;;;16.30;99.90;;;;;;5088587;28;20188;-44
2022/04/25 10:02:04;;;;;;;5.13;4.72;;;16.30;99.90;;;;;;5076308;28;20267;-42
2022/04/25 10:04:36;;;;;;;4.60;4.20;;;16.70;99.90;;;;;;5071920;28;20193;-42
2022/04/25 10:07:04;;;;;;;5.85;5.35;;;16.60;99.90;;;;;;5071900;28;20253;-43
2022/04/25 10:09:31;;;;;;;5.35;4.95;;;16.50;99.90;;;;;;5085044;28;20173;-46
2022/04/25 10:12:02;;;;;;;4.75;4.35;;;17.20;99.90;;;;;;5072753;28;20622;-45
2022/04/25 10:14:28;;;;;;;5.35;4.85;;;17.50;99.90;;;;;;5075575;28;20221;-45
2022/04/25 10:16:58;;;;;;;6.05;5.13;;;17.20;99.90;;;;;;5070906;28;20173;-46
2022/04/25 10:19:25;;;;;;;16.33;14.57;;;17.40;99.90;;;;;;5081023;28;20166;-44
2022/04/25 10:21:52;;;;;;;6.30;5.70;;;17.40;99.90;;;;;;5090892;28;20592;-45
2022/04/25 10:24:18;;;;;;;9.25;8.35;;;16.90;99.90;;;;;;5083213;28;20642;-42
2022/04/25 10:26:46;;;;;;;16.05;14.45;;;16.50;99.90;;;;;;5073322;28;20177;-42
2022/04/25 10:29:17;;;;;;;14.88;13.35;;;16.50;99.90;;;;;;5076161;28;20643;-45
2022/04/25 10:31:46;;;;;;;16.70;14.77;;;16.50;99.90;;;;;;5090417;28;20188;-41
2022/04/25 10:34:15;;;;;;;17.02;15.20;;;16.10;99.90;;;;;;5090266;28;20243;-41
2022/04/25 10:36:43;;;;;;;17.65;14.77;;;16.00;99.90;;;;;;5082948;28;20580;-42
2022/04/25 10:39:44;;;;;;;21.10;15.23;;;16.00;99.90;;;;;;5077768;28;20665;-43
2022/04/25 10:44:56;;;;;;;17.92;15.18;;;15.90;99.90;;;;;;5086963;28;20230;-44
2022/04/25 10:47:25;;;;;;;16.88;14.13;;;16.10;99.90;;;;;;5090487;28;20177;-44
2022/04/25 10:49:53;;;;;;;14.07;12.63;;;16.50;99.90;;;;;;5090292;28;20516;-48
2022/04/25 10:52:37;;;;;;;14.85;13.35;;;16.50;99.90;;;;;;5087598;28;20182;-42
2022/04/25 10:55:09;;;;;;;13.18;11.73;;;16.30;99.90;;;;;;5090699;28;20208;-48
2022/04/25 10:57:35;;;;;;;14.73;13.00;;;16.10;99.90;;;;;;5090527;28;20193;-42
2022/04/25 11:00:01;;;;;;;15.05;13.57;;;15.90;99.90;;;;;;5088541;28;20220;-42
2022/04/25 11:02:28;;;;;;;14.55;13.13;;;15.80;99.90;;;;;;5090800;28;20233;-42
2022/04/25 11:05:11;;;;;;;15.45;13.90;;;15.60;99.90;;;;;;5075633;28;20670;-44
2022/04/25 11:07:42;;;;;;;17.45;15.57;;;15.70;99.90;;;;;;5091711;28;20184;-43
2022/04/25 11:10:28;;;;;;;13.65;12.25;;;15.80;99.90;;;;;;5075631;28;20170;-41
2022/04/25 11:12:58;;;;;;;14.73;13.23;;;16.10;99.90;;;;;;5085395;28;20242;-41
2022/04/25 11:15:42;;;;;;;15.95;14.43;;;16.30;99.90;;;;;;5089416;28;20216;-46
2022/04/25 11:18:35;;;;;;;16.60;15.00;;;16.50;99.90;;;;;;5089916;28;20545;-48
2022/04/25 11:21:18;;;;;;;13.95;12.55;;;16.70;99.90;;;;;;5094221;28;20169;-45
2022/04/25 11:23:44;;;;;;;14.45;12.95;;;16.30;99.90;;;;;;5093944;28;20638;-47
2022/04/25 11:26:11;;;;;;;16.13;14.57;;;16.20;99.90;;;;;;5087100;28;20177;-42
2022/04/25 11:28:58;;;;;;;15.15;13.75;;;16.30;99.90;;;;;;5079822;28;20185;-47
2022/04/25 11:31:25;;;;;;;14.60;13.05;;;16.30;99.90;;;;;;5093922;28;20173;-48
2022/04/25 11:33:53;;;;;;;15.43;13.15;;;16.10;99.90;;;;;;5091542;28;20211;-47
2022/04/25 11:36:20;;;;;;;13.88;12.50;;;16.10;99.90;;;;;;5084492;28;20289;-47
2022/04/25 11:41:34;;;;;;;14.10;12.15;;;15.80;99.90;;;;;;5093508;28;20766;-44
2022/04/25 11:43:59;;;;;;;15.05;13.48;;;15.70;99.90;;;;;;5093710;28;20162;-42
2022/04/25 11:46:32;;;;;;;15.75;14.15;;;15.70;99.90;;;;;;5090179;28;20523;-41
2022/04/25 11:48:58;;;;;;;15.00;13.50;;;15.80;99.90;;;;;;5081282;28;20174;-44
2022/04/25 11:51:29;;;;;;;14.30;12.80;;;15.60;99.90;;;;;;5077454;28;20169;-42
2022/04/25 11:53:59;;;;;;;22.15;15.10;;;15.50;99.90;;;;;;5090047;28;20211;-41
2022/04/25 11:56:28;;;;;;;18.75;14.95;;;15.90;99.90;;;;;;5092644;28;20244;-42
2022/04/25 11:58:55;;;;;;;14.32;12.50;;;16.20;99.90;;;;;;5093308;28;20173;-45
2022/04/25 12:01:59;;;;;;;13.25;11.95;;;16.30;99.90;;;;;;5092879;28;20161;-44
2022/04/25 12:04:30;;;;;;;14.85;13.40;;;16.10;99.90;;;;;;5091200;28;20650;-41
2022/04/25 12:07:02;;;;;;;15.90;13.40;;;15.90;99.90;;;;;;5093085;28;20180;-41
2022/04/25 12:18:14;;;;;;;12.85;11.55;;;15.70;99.90;;;;;;5093160;28;20184;-41
2022/04/25 12:20:42;;;;;;;12.63;11.50;;;15.60;99.90;;;;;;5092436;28;20162;-41
2022/04/25 12:23:08;;;;;;;13.02;11.55;;;15.60;99.90;;;;;;5092848;28;20165;-42
2022/04/25 12:25:40;;;;;;;12.95;11.75;;;15.70;99.90;;;;;;5090956;28;20173;-40
2022/04/25 12:28:07;;;;;;;13.48;11.77;;;15.60;99.90;;;;;;5092712;28;20177;-42
2022/04/25 12:31:03;;;;;;;12.43;11.13;;;15.60;99.90;;;;;;5091610;28;20181;-41
2022/04/25 12:33:36;;;;;;;12.35;10.57;;;15.60;99.90;;;;;;5092390;28;20239;-45
2022/04/25 12:36:22;;;;;;;12.23;11.02;;;15.70;99.90;;;;;;5092709;28;20196;-42
2022/04/25 12:38:56;;;;;;;15.50;12.23;;;15.70;99.90;;;;;;5092558;28;20195;-42
2022/04/25 12:41:23;;;;;;;15.13;13.43;;;15.50;99.90;;;;;;5092829;28;20196;-41
2022/04/25 12:43:50;;;;;;;13.57;12.27;;;15.50;99.90;;;;;;5092697;28;20173;-43
2022/04/25 12:46:32;;;;;;;14.55;13.05;;;15.60;99.90;;;;;;5092303;28;20695;-43
2022/04/25 12:49:06;;;;;;;14.23;12.82;;;15.60;99.90;;;;;;5092418;28;20178;-42
2022/04/25 12:51:36;;;;;;;13.95;12.55;;;15.60;99.90;;;;;;5092345;28;20165;-43
2022/04/25 12:54:03;;;;;;;12.73;11.32;;;15.60;99.90;;;;;;5092259;28;20200;-40
2022/04/25 12:56:32;;;;;;;14.88;13.38;;;15.70;99.90;;;;;;5091966;28;20765;-41
2022/04/25 12:58:58;;;;;;;11.77;10.65;;;15.80;99.90;;;;;;5092048;28;20222;-40
2022/04/25 13:01:27;;;;;;;11.73;10.63;;;15.80;99.90;;;;;;5092083;28;20670;-41
2022/04/25 13:04:08;;;;;;;14.52;10.18;;;15.80;99.90;;;;;;5092215;28;20169;-41
2022/04/25 13:06:35;;;;;;;12.60;11.38;;;15.80;99.90;;;;;;5092109;28;20173;-40
2022/04/25 13:09:01;;;;;;;12.40;11.18;;;15.90;99.90;;;;;;5091746;28;20525;-41
2022/04/25 13:11:27;;;;;;;13.50;12.20;;;15.90;99.90;;;;;;5091739;28;20208;-40
2022/04/25 13:13:52;;;;;;;12.73;11.43;;;15.90;99.90;;;;;;5091008;28;20232;-41
2022/04/25 13:16:18;;;;;;;28.63;26.13;;;15.90;99.90;;;;;;5091617;28;20619;-42
2022/04/25 13:18:43;;;;;;;15.00;11.02;;;15.90;99.90;;;;;;5091324;28;20181;-43
2022/04/25 13:21:12;;;;;;;11.45;10.43;;;15.90;99.90;;;;;;5091588;28;20165;-41
2022/04/25 13:23:38;;;;;;;12.35;11.15;;;15.90;99.90;;;;;;5092110;28;20169;-40